createdAt,value
2022-09-18T00:00:39.308Z,11.79
2022-09-18T00:01:39.354Z,11.79
2022-09-18T00:02:39.259Z,11.80
2022-09-18T00:03:39.242Z,11.80
2022-09-18T00:04:39.235Z,11.82
2022-09-18T00:05:39.287Z,11.80
2022-09-18T00:06:39.204Z,11.80
2022-09-18T00:07:39.197Z,11.82
2022-09-18T00:08:39.162Z,11.79
2022-09-18T00:09:39.172Z,11.79
2022-09-18T00:10:39.147Z,11.78
2022-09-18T00:11:39.146Z,11.76
2022-09-18T00:12:39.157Z,11.76
2022-09-18T00:13:39.111Z,11.73
2022-09-18T00:14:39.089Z,11.75
2022-09-18T00:15:39.085Z,11.73
2022-09-18T00:16:39.109Z,11.73
2022-09-18T00:17:39.180Z,11.73
2022-09-18T00:18:39.038Z,11.70
2022-09-18T00:19:39.031Z,11.70
2022-09-18T00:20:39.012Z,11.69
2022-09-18T00:21:38.990Z,11.72
2022-09-18T00:22:39.020Z,11.70
2022-09-18T00:23:38.993Z,11.67
2022-09-18T00:24:38.966Z,11.65
2022-09-18T00:25:38.931Z,11.64
2022-09-18T00:26:38.938Z,11.64
2022-09-18T00:27:38.934Z,11.65
2022-09-18T00:28:38.927Z,11.64
2022-09-18T00:29:38.906Z,11.65
2022-09-18T00:30:38.885Z,11.64
2022-09-18T00:31:38.903Z,11.64
2022-09-18T00:32:38.861Z,11.62
2022-09-18T00:33:38.825Z,11.62
2022-09-18T00:34:38.830Z,11.60
2022-09-18T00:35:38.810Z,11.61
2022-09-18T00:36:38.796Z,11.58
2022-09-18T00:37:38.779Z,11.58
2022-09-18T00:38:38.759Z,11.58
2022-09-18T00:39:38.757Z,11.58
2022-09-18T00:40:38.791Z,11.58
2022-09-18T00:41:38.753Z,11.58
2022-09-18T00:42:38.724Z,11.55
2022-09-18T00:43:38.700Z,11.57
2022-09-18T00:44:38.702Z,11.55
2022-09-18T00:45:38.683Z,11.57
2022-09-18T00:46:38.713Z,11.55
2022-09-18T00:47:38.660Z,11.57
2022-09-18T00:48:38.639Z,11.57
2022-09-18T00:49:38.654Z,11.55
2022-09-18T00:50:38.599Z,11.57
2022-09-18T00:51:38.592Z,11.58
2022-09-18T00:52:38.566Z,11.58
2022-09-18T00:53:38.573Z,11.58
2022-09-18T00:54:38.576Z,11.55
2022-09-18T00:55:38.554Z,11.55
2022-09-18T00:56:38.652Z,11.54
2022-09-18T00:57:38.515Z,11.52
2022-09-18T00:58:38.513Z,11.54
2022-09-18T00:59:38.483Z,11.55
2022-09-18T01:00:38.511Z,11.57
2022-09-18T01:01:38.488Z,11.58
2022-09-18T01:02:38.451Z,11.60
2022-09-18T01:03:38.435Z,11.64
2022-09-18T01:04:38.399Z,11.60
2022-09-18T01:05:38.396Z,11.61
2022-09-18T01:06:38.412Z,11.60
2022-09-18T01:07:38.418Z,11.61
2022-09-18T01:08:43.195Z,11.62
2022-09-18T01:09:38.357Z,11.58
2022-09-18T01:10:38.350Z,11.61
2022-09-18T01:11:38.305Z,11.60
2022-09-18T01:12:38.305Z,11.61
2022-09-18T01:13:38.307Z,11.60
2022-09-18T01:14:38.271Z,11.60
2022-09-18T01:15:38.336Z,11.60
2022-09-18T01:16:38.290Z,11.60
2022-09-18T01:17:38.584Z,11.58
2022-09-18T01:18:38.239Z,11.60
2022-09-18T01:19:38.209Z,11.60
2022-09-18T01:20:38.275Z,11.60
2022-09-18T01:21:38.173Z,11.58
2022-09-18T01:22:38.159Z,11.60
2022-09-18T01:23:38.154Z,11.60
2022-09-18T01:24:38.148Z,11.61
2022-09-18T01:25:38.206Z,11.62
2022-09-18T01:26:38.168Z,11.62
2022-09-18T01:27:38.102Z,11.61
2022-09-18T01:28:38.069Z,11.61
2022-09-18T01:29:38.087Z,11.60
2022-09-18T01:30:38.053Z,11.61
2022-09-18T01:31:38.137Z,11.60
2022-09-18T01:32:38.027Z,11.61
2022-09-18T01:33:38.015Z,11.60
2022-09-18T01:34:37.996Z,11.58
2022-09-18T01:35:41.523Z,11.58
2022-09-18T01:36:37.991Z,11.58
2022-09-18T01:37:37.985Z,11.58
2022-09-18T01:38:38.637Z,11.60
2022-09-18T01:39:37.930Z,11.61
2022-09-18T01:40:37.986Z,11.60
2022-09-18T01:41:37.913Z,11.58
2022-09-18T01:42:37.923Z,11.58
2022-09-18T01:43:37.915Z,11.57
2022-09-18T01:44:37.866Z,11.58
2022-09-18T01:45:37.893Z,11.57
2022-09-18T01:46:37.901Z,11.57
2022-09-18T01:47:37.835Z,11.57
2022-09-18T01:48:37.829Z,11.57
2022-09-18T01:49:37.806Z,11.57
2022-09-18T01:50:37.778Z,11.55
2022-09-18T01:51:37.779Z,11.55
2022-09-18T01:52:37.815Z,11.55
2022-09-18T01:53:37.751Z,11.54
2022-09-18T01:54:37.733Z,11.51
2022-09-18T01:55:37.735Z,11.52
2022-09-18T01:56:37.744Z,11.51
2022-09-18T01:57:37.727Z,11.49
2022-09-18T01:58:37.722Z,11.49
2022-09-18T01:59:37.663Z,11.47
2022-09-18T02:00:37.659Z,11.49
2022-09-18T02:01:37.720Z,11.47
2022-09-18T02:02:37.762Z,11.47
2022-09-18T02:03:37.615Z,11.47
2022-09-18T02:04:37.622Z,11.46
2022-09-18T02:05:37.575Z,11.47
2022-09-18T02:06:37.597Z,11.46
2022-09-18T02:07:37.579Z,11.49
2022-09-18T02:08:37.545Z,11.49
2022-09-18T02:09:37.543Z,11.47
2022-09-18T02:10:37.514Z,11.47
2022-09-18T02:11:37.604Z,11.49
2022-09-18T02:12:37.493Z,11.49
2022-09-18T02:13:37.473Z,11.47
2022-09-18T02:14:37.456Z,11.49
2022-09-18T02:15:37.471Z,11.47
2022-09-18T02:16:37.459Z,11.49
2022-09-18T02:17:37.418Z,11.49
2022-09-18T02:18:37.405Z,11.49
2022-09-18T02:19:37.418Z,11.47
2022-09-18T02:20:37.380Z,11.49
2022-09-18T02:21:37.398Z,11.49
2022-09-18T02:22:37.351Z,11.49
2022-09-18T02:23:37.355Z,11.47
2022-09-18T02:24:37.329Z,11.46
2022-09-18T02:25:37.310Z,11.49
2022-09-18T02:26:37.348Z,11.47
2022-09-18T02:27:37.290Z,11.47
2022-09-18T02:28:37.263Z,11.49
2022-09-18T02:29:37.264Z,11.47
2022-09-18T02:30:37.271Z,11.49
2022-09-18T02:31:37.378Z,11.49
2022-09-18T02:32:37.217Z,11.49
2022-09-18T02:33:37.209Z,11.47
2022-09-18T02:34:37.219Z,11.47
2022-09-18T02:35:37.187Z,11.47
2022-09-18T02:36:37.161Z,11.46
2022-09-18T02:37:37.163Z,11.46
2022-09-18T02:38:37.133Z,11.47
2022-09-18T02:39:37.143Z,11.49
2022-09-18T02:40:37.229Z,11.46
2022-09-18T02:41:37.117Z,11.47
2022-09-18T02:42:37.091Z,11.46
2022-09-18T02:43:37.082Z,11.44
2022-09-18T02:44:37.150Z,11.46
2022-09-18T02:45:37.049Z,11.47
2022-09-18T02:46:37.115Z,11.46
2022-09-18T02:47:37.015Z,11.44
2022-09-18T02:48:37.005Z,11.44
2022-09-18T02:49:37.024Z,11.46
2022-09-18T02:50:37.005Z,11.47
2022-09-18T02:51:36.965Z,11.49
2022-09-18T02:52:36.951Z,11.51
2022-09-18T02:53:36.952Z,11.49
2022-09-18T02:54:36.929Z,11.52
2022-09-18T02:55:36.926Z,11.49
2022-09-18T02:56:36.902Z,11.51
2022-09-18T02:57:36.920Z,11.52
2022-09-18T02:58:36.887Z,11.52
2022-09-18T02:59:36.888Z,11.54
2022-09-18T03:00:36.838Z,11.51
2022-09-18T03:01:36.988Z,11.54
2022-09-18T03:02:36.879Z,11.54
2022-09-18T03:03:36.790Z,11.52
2022-09-18T03:04:36.799Z,11.49
2022-09-18T03:05:36.816Z,11.51
2022-09-18T03:06:36.762Z,11.51
2022-09-18T03:07:36.763Z,11.49
2022-09-18T03:08:36.735Z,11.49
2022-09-18T03:09:36.727Z,11.51
2022-09-18T03:10:36.774Z,11.49
2022-09-18T03:11:36.707Z,11.49
2022-09-18T03:12:36.676Z,11.51
2022-09-18T03:13:36.681Z,11.52
2022-09-18T03:14:36.669Z,11.54
2022-09-18T03:15:36.669Z,11.52
2022-09-18T03:16:36.711Z,11.54
2022-09-18T03:17:36.625Z,11.52
2022-09-18T03:18:36.600Z,11.51
2022-09-18T03:19:36.591Z,11.49
2022-09-18T03:20:36.635Z,11.51
2022-09-18T03:21:36.568Z,11.49
2022-09-18T03:22:36.563Z,11.49
2022-09-18T03:23:36.536Z,11.51
2022-09-18T03:24:36.510Z,11.51
2022-09-18T03:25:36.552Z,11.51
2022-09-18T03:26:36.487Z,11.49
2022-09-18T03:27:36.507Z,11.49
2022-09-18T03:28:36.459Z,11.46
2022-09-18T03:29:36.450Z,11.47
2022-09-18T03:30:36.449Z,11.44
2022-09-18T03:31:36.504Z,11.46
2022-09-18T03:32:36.433Z,11.44
2022-09-18T03:33:36.402Z,11.46
2022-09-18T03:34:36.378Z,11.47
2022-09-18T03:35:36.405Z,11.47
2022-09-18T03:36:36.369Z,11.44
2022-09-18T03:37:36.374Z,11.44
2022-09-18T03:38:36.326Z,11.43
2022-09-18T03:39:36.319Z,11.46
2022-09-18T03:40:36.331Z,11.47
2022-09-18T03:41:36.298Z,11.47
2022-09-18T03:42:36.302Z,11.44
2022-09-18T03:43:36.271Z,11.44
2022-09-18T03:44:36.245Z,11.44
2022-09-18T03:45:36.284Z,11.46
2022-09-18T03:46:36.283Z,11.46
2022-09-18T03:47:36.786Z,11.44
2022-09-18T03:48:36.219Z,11.44
2022-09-18T03:49:36.179Z,11.43
2022-09-18T03:50:36.198Z,11.42
2022-09-18T03:51:36.159Z,11.44
2022-09-18T03:52:36.153Z,11.44
2022-09-18T03:53:36.132Z,11.46
2022-09-18T03:54:36.126Z,11.43
2022-09-18T03:55:36.135Z,11.44
2022-09-18T03:56:36.165Z,11.44
2022-09-18T03:57:36.087Z,11.43
2022-09-18T03:58:36.061Z,11.43
2022-09-18T03:59:36.075Z,11.44
2022-09-18T04:00:36.036Z,11.44
2022-09-18T04:01:36.115Z,11.44
2022-09-18T04:02:36.084Z,11.44
2022-09-18T04:03:35.990Z,11.46
2022-09-18T04:04:35.974Z,11.46
2022-09-18T04:05:35.964Z,11.49
2022-09-18T04:06:35.967Z,11.46
2022-09-18T04:07:35.959Z,11.47
2022-09-18T04:08:35.932Z,11.46
2022-09-18T04:09:35.927Z,11.47
2022-09-18T04:10:35.900Z,11.49
2022-09-18T04:11:35.881Z,11.47
2022-09-18T04:12:35.904Z,11.47
2022-09-18T04:13:35.863Z,11.46
2022-09-18T04:14:35.891Z,11.46
2022-09-18T04:15:35.834Z,11.44
2022-09-18T04:16:35.852Z,11.46
2022-09-18T04:17:35.823Z,11.46
2022-09-18T04:18:35.792Z,11.47
2022-09-18T04:19:36.629Z,11.44
2022-09-18T04:20:35.771Z,11.46
2022-09-18T04:21:35.754Z,11.47
2022-09-18T04:22:35.731Z,11.49
2022-09-18T04:23:35.722Z,11.51
2022-09-18T04:24:35.754Z,11.49
2022-09-18T04:25:35.686Z,11.51
2022-09-18T04:26:35.686Z,11.49
2022-09-18T04:27:35.688Z,11.49
2022-09-18T04:28:35.695Z,11.49
2022-09-18T04:29:35.645Z,11.47
2022-09-18T04:30:35.658Z,11.47
2022-09-18T04:31:35.717Z,11.51
2022-09-18T04:32:35.613Z,11.51
2022-09-18T04:33:35.589Z,11.49
2022-09-18T04:34:35.618Z,11.49
2022-09-18T04:35:35.573Z,11.51
2022-09-18T04:36:35.555Z,11.49
2022-09-18T04:37:35.534Z,11.47
2022-09-18T04:38:35.564Z,11.49
2022-09-18T04:39:35.528Z,11.49
2022-09-18T04:40:35.593Z,11.49
2022-09-18T04:41:35.467Z,11.49
2022-09-18T04:42:35.466Z,11.49
2022-09-18T04:43:35.457Z,11.49
2022-09-18T04:44:35.603Z,11.49
2022-09-18T04:45:35.438Z,11.47
2022-09-18T04:46:35.484Z,11.46
2022-09-18T04:47:35.403Z,11.44
2022-09-18T04:48:35.392Z,11.44
2022-09-18T04:49:35.473Z,11.44
2022-09-18T04:50:35.928Z,11.44
2022-09-18T04:51:35.345Z,11.44
2022-09-18T04:52:35.345Z,11.44
2022-09-18T04:53:35.319Z,11.44
2022-09-18T04:54:35.312Z,11.44
2022-09-18T04:55:35.345Z,11.46
2022-09-18T04:56:35.284Z,11.44
2022-09-18T04:57:35.279Z,11.46
2022-09-18T04:58:35.280Z,11.47
2022-09-18T04:59:35.244Z,11.47
2022-09-18T05:00:35.310Z,11.47
2022-09-18T05:01:35.301Z,11.47
2022-09-18T05:02:35.218Z,11.46
2022-09-18T05:03:35.201Z,11.46
2022-09-18T05:04:35.168Z,11.46
2022-09-18T05:05:35.162Z,11.49
2022-09-18T05:06:35.160Z,11.47
2022-09-18T05:07:35.157Z,11.47
2022-09-18T05:08:35.130Z,11.49
2022-09-18T05:09:35.097Z,11.49
2022-09-18T05:10:35.103Z,11.51
2022-09-18T05:11:35.266Z,11.51
2022-09-18T05:12:35.102Z,11.51
2022-09-18T05:13:35.068Z,11.51
2022-09-18T05:14:35.038Z,11.51
2022-09-18T05:15:35.024Z,11.51
2022-09-18T05:16:35.103Z,11.51
2022-09-18T05:17:35.035Z,11.51
2022-09-18T05:18:34.996Z,11.49
2022-09-18T05:19:34.977Z,11.52
2022-09-18T05:20:34.950Z,11.52
2022-09-18T05:21:34.949Z,11.52
2022-09-18T05:22:34.932Z,11.52
2022-09-18T05:23:34.941Z,11.51
2022-09-18T05:24:35.013Z,11.51
2022-09-18T05:25:35.335Z,11.51
2022-09-18T05:26:34.883Z,11.51
2022-09-18T05:27:34.887Z,11.51
2022-09-18T05:28:34.886Z,11.51
2022-09-18T05:29:34.849Z,11.52
2022-09-18T05:30:34.842Z,11.54
2022-09-18T05:31:34.866Z,11.54
2022-09-18T05:32:34.797Z,11.55
2022-09-18T05:33:34.807Z,11.58
2022-09-18T05:34:34.769Z,11.55
2022-09-18T05:35:34.748Z,11.54
2022-09-18T05:36:34.769Z,11.55
2022-09-18T05:37:34.775Z,11.52
2022-09-18T05:38:34.745Z,11.54
2022-09-18T05:39:34.709Z,11.54
2022-09-18T05:40:34.795Z,11.54
2022-09-18T05:41:34.693Z,11.54
2022-09-18T05:42:34.658Z,11.55
2022-09-18T05:43:34.682Z,11.52
2022-09-18T05:44:34.653Z,11.54
2022-09-18T05:45:34.629Z,11.52
2022-09-18T05:46:34.684Z,11.54
2022-09-18T05:47:34.614Z,11.55
2022-09-18T05:48:34.619Z,11.55
2022-09-18T05:49:34.588Z,11.52
2022-09-18T05:50:34.564Z,11.51
2022-09-18T05:51:34.540Z,11.49
2022-09-18T05:52:34.523Z,11.47
2022-09-18T05:53:34.519Z,11.47
2022-09-18T05:54:34.521Z,11.44
2022-09-18T05:55:34.484Z,11.44
2022-09-18T05:56:34.471Z,11.46
2022-09-18T05:57:34.454Z,11.46
2022-09-18T05:58:34.487Z,11.46
2022-09-18T05:59:34.463Z,11.47
2022-09-18T06:00:34.458Z,11.44
2022-09-18T06:01:34.459Z,11.44
2022-09-18T06:02:34.422Z,11.44
2022-09-18T06:03:34.371Z,11.43
2022-09-18T06:04:34.391Z,11.43
2022-09-18T06:05:34.359Z,11.46
2022-09-18T06:06:34.374Z,11.44
2022-09-18T06:07:34.330Z,11.47
2022-09-18T06:08:34.359Z,11.46
2022-09-18T06:09:34.292Z,11.49
2022-09-18T06:10:34.299Z,11.49
2022-09-18T06:11:34.292Z,11.49
2022-09-18T06:12:34.266Z,11.51
2022-09-18T06:13:34.235Z,11.52
2022-09-18T06:14:34.241Z,11.51
2022-09-18T06:15:34.231Z,11.52
2022-09-18T06:16:37.456Z,11.54
2022-09-18T06:17:34.209Z,11.54
2022-09-18T06:18:34.204Z,11.52
2022-09-18T06:19:34.176Z,11.54
2022-09-18T06:20:34.148Z,11.54
2022-09-18T06:21:34.190Z,11.52
2022-09-18T06:22:34.137Z,11.54
2022-09-18T06:23:34.114Z,11.54
2022-09-18T06:24:34.110Z,11.54
2022-09-18T06:25:34.120Z,11.54
2022-09-18T06:26:34.082Z,11.55
2022-09-18T06:27:34.121Z,11.54
2022-09-18T06:28:34.046Z,11.55
2022-09-18T06:29:34.030Z,11.55
2022-09-18T06:30:34.032Z,11.57
2022-09-18T06:31:34.060Z,11.58
2022-09-18T06:32:33.999Z,11.58
2022-09-18T06:33:33.968Z,11.60
2022-09-18T06:34:38.511Z,11.60
2022-09-18T06:35:33.957Z,11.64
2022-09-18T06:36:33.955Z,11.64
2022-09-18T06:37:33.958Z,11.67
2022-09-18T06:38:33.933Z,11.69
2022-09-18T06:39:33.908Z,11.70
2022-09-18T06:40:33.971Z,11.72
2022-09-18T06:41:33.875Z,11.72
2022-09-18T06:42:33.858Z,11.70
2022-09-18T06:43:33.857Z,11.72
2022-09-18T06:44:33.846Z,11.73
2022-09-18T06:45:34.279Z,11.73
2022-09-18T06:46:33.858Z,11.76
2022-09-18T06:47:33.808Z,11.78
2022-09-18T06:48:33.773Z,11.80
2022-09-18T06:49:34.402Z,11.82
2022-09-18T06:50:33.769Z,11.83
2022-09-18T06:51:33.743Z,11.83
2022-09-18T06:52:33.730Z,11.86
2022-09-18T06:53:33.721Z,11.90
2022-09-18T06:54:33.687Z,11.91
2022-09-18T06:55:33.694Z,11.91
2022-09-18T06:56:33.724Z,11.90
2022-09-18T06:57:33.659Z,11.94
2022-09-18T06:58:33.700Z,11.94
2022-09-18T06:59:33.624Z,11.94
2022-09-18T07:00:33.724Z,11.95
2022-09-18T07:01:33.686Z,11.94
2022-09-18T07:02:33.660Z,11.94
2022-09-18T07:03:33.576Z,11.94
2022-09-18T07:04:33.629Z,11.94
2022-09-18T07:05:33.587Z,11.95
2022-09-18T07:06:33.569Z,11.96
2022-09-18T07:07:33.543Z,11.96
2022-09-18T07:08:33.521Z,11.95
2022-09-18T07:09:33.515Z,11.98
2022-09-18T07:10:33.549Z,11.98
2022-09-18T07:11:33.466Z,12.01
2022-09-18T07:12:33.464Z,12.02
2022-09-18T07:13:33.435Z,12.05
2022-09-18T07:14:33.464Z,12.07
2022-09-18T07:15:33.441Z,12.10
2022-09-18T07:16:33.511Z,12.10
2022-09-18T07:17:33.400Z,12.14
2022-09-18T07:18:33.383Z,12.14
2022-09-18T07:19:33.347Z,12.14
2022-09-18T07:20:33.346Z,12.17
2022-09-18T07:21:33.361Z,12.21
2022-09-18T07:22:33.339Z,12.21
2022-09-18T07:23:33.333Z,12.23
2022-09-18T07:24:33.301Z,12.27
2022-09-18T07:25:33.269Z,12.28
2022-09-18T07:26:33.261Z,12.28
2022-09-18T07:27:33.254Z,12.32
2022-09-18T07:28:33.284Z,12.34
2022-09-18T07:29:33.216Z,12.35
2022-09-18T07:30:33.242Z,12.38
2022-09-18T07:31:33.225Z,12.37
2022-09-18T07:32:33.193Z,12.38
2022-09-18T07:33:33.187Z,12.41
2022-09-18T07:34:33.182Z,12.45
2022-09-18T07:35:33.145Z,12.46
2022-09-18T07:36:33.128Z,12.49
2022-09-18T07:37:33.130Z,12.50
2022-09-18T07:38:33.140Z,12.53
2022-09-18T07:39:33.122Z,12.57
2022-09-18T07:40:33.231Z,12.62
2022-09-18T07:41:33.054Z,12.67
2022-09-18T07:42:33.057Z,12.67
2022-09-18T07:43:33.043Z,12.75
2022-09-18T07:44:33.033Z,12.77
2022-09-18T07:45:33.029Z,12.78
2022-09-18T07:46:33.078Z,12.78
2022-09-18T07:47:32.988Z,12.77
2022-09-18T07:48:32.981Z,12.82
2022-09-18T07:49:32.990Z,12.82
2022-09-18T07:50:32.949Z,12.79
2022-09-18T07:51:32.991Z,12.79
2022-09-18T07:52:32.946Z,12.82
2022-09-18T07:53:32.911Z,12.85
2022-09-18T07:54:32.921Z,12.83
2022-09-18T07:55:32.896Z,12.83
2022-09-18T07:56:32.867Z,12.83
2022-09-18T07:57:32.850Z,12.79
2022-09-18T07:58:32.850Z,12.78
2022-09-18T07:59:32.821Z,12.78
2022-09-18T08:00:32.835Z,12.78
2022-09-18T08:01:32.823Z,12.79
2022-09-18T08:02:32.956Z,12.82
2022-09-18T08:03:32.753Z,12.82
2022-09-18T08:04:32.744Z,12.83
2022-09-18T08:05:32.748Z,12.82
2022-09-18T08:06:32.738Z,12.79
2022-09-18T08:07:32.726Z,12.77
2022-09-18T08:08:32.705Z,12.75
2022-09-18T08:09:32.706Z,12.75
2022-09-18T08:10:32.657Z,12.74
2022-09-18T08:11:32.687Z,12.75
2022-09-18T08:12:32.652Z,12.77
2022-09-18T08:13:32.626Z,12.75
2022-09-18T08:14:32.631Z,12.75
2022-09-18T08:15:32.639Z,12.79
2022-09-18T08:16:32.647Z,12.79
2022-09-18T08:17:32.570Z,12.83
2022-09-18T08:18:32.563Z,12.85
2022-09-18T08:19:32.572Z,12.86
2022-09-18T08:20:32.558Z,12.87
2022-09-18T08:21:32.595Z,12.89
2022-09-18T08:22:32.533Z,12.97
2022-09-18T08:23:32.507Z,13.04
2022-09-18T08:24:32.484Z,13.10
2022-09-18T08:25:32.472Z,13.17
2022-09-18T08:26:32.461Z,13.19
2022-09-18T08:27:32.479Z,13.22
2022-09-18T08:28:32.724Z,13.25
2022-09-18T08:29:32.449Z,13.29
2022-09-18T08:30:32.406Z,13.36
2022-09-18T08:31:32.451Z,13.41
2022-09-18T08:32:32.374Z,13.41
2022-09-18T08:33:32.380Z,13.45
2022-09-18T08:34:32.443Z,13.51
2022-09-18T08:35:32.327Z,13.55
2022-09-18T08:36:32.320Z,13.59
2022-09-18T08:37:32.340Z,13.63
2022-09-18T08:38:32.306Z,13.66
2022-09-18T08:39:32.312Z,13.70
2022-09-18T08:40:32.305Z,13.75
2022-09-18T08:41:32.280Z,13.78
2022-09-18T08:42:32.257Z,13.81
2022-09-18T08:43:32.244Z,13.84
2022-09-18T08:44:32.288Z,13.89
2022-09-18T08:45:32.217Z,13.92
2022-09-18T08:46:32.251Z,14.03
2022-09-18T08:47:32.200Z,14.10
2022-09-18T08:48:32.179Z,14.24
2022-09-18T08:49:32.166Z,14.39
2022-09-18T08:50:37.656Z,14.54
2022-09-18T08:51:32.127Z,14.60
2022-09-18T08:52:32.137Z,14.55
2022-09-18T08:53:32.161Z,14.50
2022-09-18T08:54:32.135Z,14.47
2022-09-18T08:55:32.064Z,14.50
2022-09-18T08:56:32.049Z,14.42
2022-09-18T08:57:32.036Z,14.33
2022-09-18T08:58:32.041Z,14.29
2022-09-18T08:59:32.025Z,14.29
2022-09-18T09:00:32.087Z,14.29
2022-09-18T09:01:31.989Z,14.17
2022-09-18T09:02:32.036Z,14.14
2022-09-18T09:03:31.963Z,14.10
2022-09-18T09:04:32.033Z,14.07
2022-09-18T09:05:31.925Z,14.09
2022-09-18T09:06:31.910Z,14.07
2022-09-18T09:07:31.919Z,14.06
2022-09-18T09:08:31.913Z,14.09
2022-09-18T09:09:31.903Z,14.14
2022-09-18T09:10:31.867Z,14.15
2022-09-18T09:11:31.880Z,14.18
2022-09-18T09:12:31.832Z,14.18
2022-09-18T09:13:31.836Z,14.20
2022-09-18T09:14:55.702Z,14.15
2022-09-18T09:15:31.849Z,14.15
2022-09-18T09:16:31.839Z,14.15
2022-09-18T09:17:31.758Z,14.14
2022-09-18T09:18:31.770Z,14.18
2022-09-18T09:19:31.767Z,14.25
2022-09-18T09:20:31.764Z,14.27
2022-09-18T09:21:31.716Z,14.32
2022-09-18T09:22:31.719Z,14.37
2022-09-18T09:23:31.710Z,14.37
2022-09-18T09:24:31.697Z,14.42
2022-09-18T09:25:31.687Z,14.52
2022-09-18T09:26:31.648Z,14.57
2022-09-18T09:27:31.640Z,14.65
2022-09-18T09:28:31.636Z,14.72
2022-09-18T09:29:31.623Z,14.72
2022-09-18T09:30:31.650Z,14.77
2022-09-18T09:31:31.675Z,14.88
2022-09-18T09:32:31.577Z,14.95
2022-09-18T09:33:31.554Z,14.99
2022-09-18T09:34:31.541Z,15.03
2022-09-18T09:35:31.574Z,15.06
2022-09-18T09:36:31.508Z,15.10
2022-09-18T09:37:33.816Z,15.14
2022-09-18T09:38:31.484Z,15.17
2022-09-18T09:39:31.477Z,15.11
2022-09-18T09:40:31.703Z,15.07
2022-09-18T09:41:31.467Z,15.02
2022-09-18T09:42:31.441Z,14.95
2022-09-18T09:43:31.438Z,14.92
2022-09-18T09:44:31.439Z,14.92
2022-09-18T09:45:31.458Z,14.95
2022-09-18T09:46:31.429Z,14.99
2022-09-18T09:47:31.377Z,14.94
2022-09-18T09:48:31.372Z,14.94
2022-09-18T09:49:31.381Z,14.94
2022-09-18T09:50:31.371Z,14.94
2022-09-18T09:51:31.319Z,14.96
2022-09-18T09:52:31.368Z,15.06
2022-09-18T09:53:31.287Z,15.14
2022-09-18T09:54:31.283Z,15.25
2022-09-18T09:55:31.326Z,15.36
2022-09-18T09:56:31.309Z,15.51
2022-09-18T09:57:31.264Z,15.60
2022-09-18T09:58:31.239Z,15.69
2022-09-18T09:59:31.207Z,15.84
2022-09-18T10:00:31.264Z,16.00
2022-09-18T10:01:31.182Z,16.17
2022-09-18T10:02:31.268Z,16.38
2022-09-18T10:03:31.171Z,16.33
2022-09-18T10:04:31.130Z,16.28
2022-09-18T10:05:31.228Z,16.25
2022-09-18T10:06:31.170Z,16.21
2022-09-18T10:07:31.145Z,16.15
2022-09-18T10:08:31.091Z,16.08
2022-09-18T10:09:31.077Z,16.02
2022-09-18T10:10:31.049Z,15.96
2022-09-18T10:11:31.051Z,15.94
2022-09-18T10:12:31.063Z,16.00
2022-09-18T10:13:31.028Z,15.97
2022-09-18T10:14:31.000Z,16.04
2022-09-18T10:15:30.988Z,16.07
2022-09-18T10:16:31.049Z,16.11
2022-09-18T10:17:30.960Z,16.14
2022-09-18T10:18:30.963Z,16.17
2022-09-18T10:19:30.943Z,16.21
2022-09-18T10:20:30.927Z,16.27
2022-09-18T10:21:30.914Z,16.33
2022-09-18T10:22:30.907Z,16.38
2022-09-18T10:23:33.853Z,16.46
2022-09-18T10:24:30.868Z,16.42
2022-09-18T10:25:30.851Z,16.46
2022-09-18T10:26:30.861Z,16.56
2022-09-18T10:27:30.848Z,16.63
2022-09-18T10:28:30.849Z,16.63
2022-09-18T10:29:33.892Z,16.64
2022-09-18T10:30:30.784Z,16.68
2022-09-18T10:31:30.902Z,16.70
2022-09-18T10:32:30.786Z,16.66
2022-09-18T10:33:30.753Z,16.50
2022-09-18T10:34:30.744Z,16.42
2022-09-18T10:35:30.762Z,16.41
2022-09-18T10:36:30.699Z,16.45
2022-09-18T10:37:30.699Z,16.57
2022-09-18T10:38:30.674Z,16.60
2022-09-18T10:39:31.762Z,16.58
2022-09-18T10:40:30.797Z,16.53
2022-09-18T10:41:30.625Z,16.57
2022-09-18T10:42:30.649Z,16.56
2022-09-18T10:43:30.636Z,16.48
2022-09-18T10:44:31.107Z,16.38
2022-09-18T10:45:30.627Z,16.35
2022-09-18T10:46:30.669Z,16.38
2022-09-18T10:47:30.573Z,16.41
2022-09-18T10:48:30.594Z,16.39
2022-09-18T10:49:30.648Z,16.45
2022-09-18T10:50:34.208Z,16.48
2022-09-18T10:51:30.503Z,16.41
2022-09-18T10:52:30.493Z,16.35
2022-09-18T10:53:30.475Z,16.38
2022-09-18T10:54:30.462Z,16.41
2022-09-18T10:55:30.468Z,16.48
2022-09-18T10:56:30.437Z,16.45
2022-09-18T10:57:30.431Z,16.41
2022-09-18T10:58:30.418Z,16.42
2022-09-18T10:59:30.401Z,16.46
2022-09-18T11:00:30.480Z,16.50
2022-09-18T11:01:30.415Z,16.53
2022-09-18T11:02:30.400Z,16.49
2022-09-18T11:03:30.354Z,16.49
2022-09-18T11:04:30.318Z,16.56
2022-09-18T11:05:30.370Z,16.61
2022-09-18T11:06:30.315Z,16.64
2022-09-18T11:07:30.286Z,16.73
2022-09-18T11:08:30.280Z,16.85
2022-09-18T11:09:30.274Z,16.85
2022-09-18T11:10:30.266Z,16.79
2022-09-18T11:11:30.257Z,16.76
2022-09-18T11:12:30.390Z,16.73
2022-09-18T11:13:30.205Z,16.66
2022-09-18T11:14:30.218Z,16.64
2022-09-18T11:15:30.216Z,16.64
2022-09-18T11:16:30.248Z,16.70
2022-09-18T11:17:30.155Z,16.71
2022-09-18T11:18:30.171Z,16.75
2022-09-18T11:19:30.130Z,16.81
2022-09-18T11:20:30.142Z,16.79
2022-09-18T11:21:30.142Z,16.79
2022-09-18T11:22:30.092Z,16.73
2022-09-18T11:23:30.101Z,16.70
2022-09-18T11:24:30.091Z,16.68
2022-09-18T11:25:30.062Z,16.68
2022-09-18T11:26:30.044Z,16.66
2022-09-18T11:27:30.073Z,16.60
2022-09-18T11:28:30.006Z,16.56
2022-09-18T11:29:30.014Z,16.45
2022-09-18T11:30:30.011Z,16.42
2022-09-18T11:31:30.035Z,16.41
2022-09-18T11:32:29.951Z,16.39
2022-09-18T11:33:29.932Z,16.33
2022-09-18T11:34:29.930Z,16.28
2022-09-18T11:35:29.941Z,16.25
2022-09-18T11:36:29.918Z,16.23
2022-09-18T11:37:29.880Z,16.15
2022-09-18T11:38:29.864Z,16.14
2022-09-18T11:39:29.851Z,16.12
2022-09-18T11:40:29.940Z,16.12
2022-09-18T11:41:29.851Z,16.12
2022-09-18T11:42:29.877Z,16.12
2022-09-18T11:43:29.789Z,16.11
2022-09-18T11:44:29.819Z,16.12
2022-09-18T11:45:29.784Z,16.15
2022-09-18T11:46:29.895Z,16.20
2022-09-18T11:47:29.780Z,16.20
2022-09-18T11:48:29.742Z,16.12
2022-09-18T11:49:29.723Z,16.11
2022-09-18T11:50:30.086Z,16.08
2022-09-18T11:51:29.703Z,16.02
2022-09-18T11:52:29.694Z,16.01
2022-09-18T11:53:29.685Z,16.01
2022-09-18T11:54:29.672Z,16.01
2022-09-18T11:55:29.660Z,16.05
2022-09-18T11:56:29.640Z,16.07
2022-09-18T11:57:29.622Z,16.08
2022-09-18T11:58:29.640Z,16.04
2022-09-18T11:59:29.591Z,16.04
2022-09-18T12:00:29.610Z,16.02
2022-09-18T12:01:29.575Z,16.04
2022-09-18T12:02:29.731Z,16.07
2022-09-18T12:03:29.616Z,16.11
2022-09-18T12:04:29.714Z,16.14
2022-09-18T12:05:29.501Z,16.09
2022-09-18T12:06:29.544Z,16.07
2022-09-18T12:07:42.661Z,16.02
2022-09-18T12:08:28.134Z,15.96
2022-09-18T12:09:28.099Z,15.87
2022-09-18T12:10:28.091Z,15.83
2022-09-18T12:11:28.084Z,15.78
2022-09-18T12:12:28.087Z,15.76
2022-09-18T12:13:28.042Z,15.78
2022-09-18T12:14:28.043Z,15.80
2022-09-18T12:15:28.033Z,15.83
2022-09-18T12:16:28.031Z,15.84
2022-09-18T12:17:27.992Z,15.84
2022-09-18T12:18:28.000Z,15.86
2022-09-18T12:19:27.977Z,15.86
2022-09-18T12:20:27.973Z,15.82
2022-09-18T12:21:27.940Z,15.75
2022-09-18T12:22:27.936Z,15.74
2022-09-18T12:23:27.900Z,15.76
2022-09-18T12:24:27.894Z,15.80
2022-09-18T12:25:27.915Z,15.84
2022-09-18T12:26:27.848Z,15.86
2022-09-18T12:27:28.096Z,15.89
2022-09-18T12:28:27.822Z,15.92
2022-09-18T12:29:27.831Z,15.94
2022-09-18T12:30:27.839Z,15.93
2022-09-18T12:31:27.893Z,15.90
2022-09-18T12:32:27.771Z,15.92
2022-09-18T12:33:31.135Z,15.90
2022-09-18T12:34:27.772Z,15.93
2022-09-18T12:35:27.809Z,15.89
2022-09-18T12:36:27.771Z,15.92
2022-09-18T12:37:27.703Z,15.90
2022-09-18T12:38:27.697Z,15.89
2022-09-18T12:39:28.365Z,15.86
2022-09-18T12:40:28.441Z,15.86
2022-09-18T12:41:28.334Z,15.87
2022-09-18T12:42:28.302Z,15.86
2022-09-18T12:43:28.312Z,15.84
2022-09-18T12:44:28.284Z,15.83
2022-09-18T12:45:28.310Z,15.80
2022-09-18T12:46:28.254Z,15.80
2022-09-18T12:47:28.249Z,15.78
2022-09-18T12:48:28.274Z,15.78
2022-09-18T12:49:28.221Z,15.80
2022-09-18T12:50:28.218Z,15.82
2022-09-18T12:51:28.189Z,15.83
2022-09-18T12:52:28.203Z,15.83